sensor_id;sensor_type;location;lat;lon;timestamp;P1;durP1;ratioP1;P2;durP2;ratioP2
53652;SDS011;39553;52.954;5.932;2022-08-01T00:00:25;6.05;;;4.80;;
53652;SDS011;39553;52.954;5.932;2022-08-01T00:02:51;7.05;;;4.70;;
53652;SDS011;39553;52.954;5.932;2022-08-01T00:05:17;9.45;;;4.93;;
53652;SDS011;39553;52.954;5.932;2022-08-01T00:07:43;7.72;;;4.43;;
53652;SDS011;39553;52.954;5.932;2022-08-01T00:10:13;5.57;;;4.20;;
53652;SDS011;39553;52.954;5.932;2022-08-01T00:12:40;6.53;;;4.82;;
53652;SDS011;39553;52.954;5.932;2022-08-01T00:15:07;6.82;;;4.03;;
53652;SDS011;39553;52.954;5.932;2022-08-01T00:17:34;6.13;;;4.28;;
53652;SDS011;39553;52.954;5.932;2022-08-01T00:20:00;5.88;;;4.22;;
53652;SDS011;39553;52.954;5.932;2022-08-01T00:22:28;5.55;;;4.30;;
53652;SDS011;39553;52.954;5.932;2022-08-01T00:24:55;6.10;;;4.68;;
53652;SDS011;39553;52.954;5.932;2022-08-01T00:27:20;7.78;;;4.28;;
53652;SDS011;39553;52.954;5.932;2022-08-01T00:29:46;6.75;;;4.25;;
53652;SDS011;39553;52.954;5.932;2022-08-01T00:32:12;6.18;;;3.72;;
53652;SDS011;39553;52.954;5.932;2022-08-01T00:34:37;4.85;;;3.80;;
53652;SDS011;39553;52.954;5.932;2022-08-01T00:37:03;5.30;;;4.03;;
53652;SDS011;39553;52.954;5.932;2022-08-01T00:39:29;5.63;;;4.28;;
53652;SDS011;39553;52.954;5.932;2022-08-01T00:41:56;9.40;;;5.05;;
53652;SDS011;39553;52.954;5.932;2022-08-01T00:44:22;9.13;;;5.20;;
53652;SDS011;39553;52.954;5.932;2022-08-01T00:46:47;8.77;;;4.80;;
53652;SDS011;39553;52.954;5.932;2022-08-01T00:49:13;5.55;;;4.32;;
53652;SDS011;39553;52.954;5.932;2022-08-01T00:51:39;7.85;;;3.75;;
53652;SDS011;39553;52.954;5.932;2022-08-01T00:54:05;4.55;;;3.78;;
53652;SDS011;39553;52.954;5.932;2022-08-01T00:56:31;7.30;;;3.30;;
53652;SDS011;39553;52.954;5.932;2022-08-01T00:58:57;4.60;;;3.45;;
53652;SDS011;39553;52.954;5.932;2022-08-01T01:01:24;4.05;;;3.50;;
53652;SDS011;39553;52.954;5.932;2022-08-01T01:03:50;5.20;;;3.83;;
53652;SDS011;39553;52.954;5.932;2022-08-01T01:06:28;5.30;;;3.15;;
53652;SDS011;39553;52.954;5.932;2022-08-01T01:14:31;5.75;;;4.45;;
53652;SDS011;39553;52.954;5.932;2022-08-01T01:17:03;6.15;;;3.95;;
53652;SDS011;39553;52.954;5.932;2022-08-01T01:19:33;7.50;;;4.30;;
53652;SDS011;39553;52.954;5.932;2022-08-01T01:24:56;12.20;;;4.68;;
53652;SDS011;39553;52.954;5.932;2022-08-01T01:30:03;7.80;;;4.28;;
53652;SDS011;39553;52.954;5.932;2022-08-01T01:32:35;8.25;;;4.57;;
53652;SDS011;39553;52.954;5.932;2022-08-01T01:35:09;6.57;;;4.28;;
53652;SDS011;39553;52.954;5.932;2022-08-01T01:37:42;8.13;;;4.22;;
53652;SDS011;39553;52.954;5.932;2022-08-01T01:40:09;8.43;;;4.47;;
53652;SDS011;39553;52.954;5.932;2022-08-01T01:42:36;8.07;;;4.47;;
53652;SDS011;39553;52.954;5.932;2022-08-01T01:45:04;8.57;;;3.95;;
53652;SDS011;39553;52.954;5.932;2022-08-01T01:47:32;7.57;;;4.47;;
53652;SDS011;39553;52.954;5.932;2022-08-01T01:49:59;10.43;;;4.68;;
53652;SDS011;39553;52.954;5.932;2022-08-01T01:52:27;7.20;;;4.53;;
53652;SDS011;39553;52.954;5.932;2022-08-01T01:54:54;18.65;;;4.10;;
53652;SDS011;39553;52.954;5.932;2022-08-01T01:57:22;7.30;;;3.97;;
53652;SDS011;39553;52.954;5.932;2022-08-01T01:59:49;10.13;;;3.92;;
53652;SDS011;39553;52.954;5.932;2022-08-01T02:02:18;8.52;;;3.85;;
53652;SDS011;39553;52.954;5.932;2022-08-01T02:04:45;10.30;;;4.25;;
53652;SDS011;39553;52.954;5.932;2022-08-01T02:07:13;9.40;;;3.85;;
53652;SDS011;39553;52.954;5.932;2022-08-01T02:09:42;10.52;;;3.85;;
53652;SDS011;39553;52.954;5.932;2022-08-01T02:12:12;6.18;;;3.22;;
53652;SDS011;39553;52.954;5.932;2022-08-01T02:14:39;4.63;;;3.45;;
53652;SDS011;39553;52.954;5.932;2022-08-01T02:17:09;5.05;;;3.03;;
53652;SDS011;39553;52.954;5.932;2022-08-01T02:19:36;8.00;;;2.85;;
53652;SDS011;39553;52.954;5.932;2022-08-01T02:22:07;6.07;;;2.50;;
53652;SDS011;39553;52.954;5.932;2022-08-01T02:24:50;7.93;;;3.00;;
53652;SDS011;39553;52.954;5.932;2022-08-01T02:27:25;5.82;;;2.67;;
53652;SDS011;39553;52.954;5.932;2022-08-01T02:30:00;10.10;;;3.50;;
53652;SDS011;39553;52.954;5.932;2022-08-01T02:32:49;5.28;;;3.00;;
53652;SDS011;39553;52.954;5.932;2022-08-01T02:35:29;5.55;;;2.75;;
53652;SDS011;39553;52.954;5.932;2022-08-01T02:37:57;8.15;;;3.50;;
53652;SDS011;39553;52.954;5.932;2022-08-01T02:40:28;7.57;;;3.10;;
53652;SDS011;39553;52.954;5.932;2022-08-01T02:42:57;7.28;;;2.67;;
53652;SDS011;39553;52.954;5.932;2022-08-01T02:45:26;6.60;;;3.13;;
53652;SDS011;39553;52.954;5.932;2022-08-01T02:47:56;7.93;;;3.03;;
53652;SDS011;39553;52.954;5.932;2022-08-01T02:50:24;7.63;;;3.42;;
53652;SDS011;39553;52.954;5.932;2022-08-01T02:52:53;6.13;;;3.03;;
53652;SDS011;39553;52.954;5.932;2022-08-01T02:55:21;5.07;;;2.72;;
53652;SDS011;39553;52.954;5.932;2022-08-01T02:57:48;5.43;;;2.92;;
53652;SDS011;39553;52.954;5.932;2022-08-01T03:00:16;6.38;;;2.92;;
53652;SDS011;39553;52.954;5.932;2022-08-01T03:02:43;7.30;;;3.22;;
53652;SDS011;39553;52.954;5.932;2022-08-01T03:05:10;8.98;;;3.75;;
53652;SDS011;39553;52.954;5.932;2022-08-01T03:07:38;7.00;;;2.85;;
53652;SDS011;39553;52.954;5.932;2022-08-01T03:10:05;8.98;;;2.80;;
53652;SDS011;39553;52.954;5.932;2022-08-01T03:12:32;6.00;;;3.15;;
53652;SDS011;39553;52.954;5.932;2022-08-01T03:15:00;9.43;;;2.92;;
53652;SDS011;39553;52.954;5.932;2022-08-01T03:17:27;6.47;;;3.05;;
53652;SDS011;39553;52.954;5.932;2022-08-01T03:19:54;8.38;;;2.92;;
53652;SDS011;39553;52.954;5.932;2022-08-01T03:22:23;11.50;;;4.53;;
53652;SDS011;39553;52.954;5.932;2022-08-01T03:24:52;9.20;;;2.90;;
53652;SDS011;39553;52.954;5.932;2022-08-01T03:27:19;11.60;;;3.63;;
53652;SDS011;39553;52.954;5.932;2022-08-01T03:29:47;13.70;;;3.92;;
53652;SDS011;39553;52.954;5.932;2022-08-01T03:32:14;5.97;;;2.70;;
53652;SDS011;39553;52.954;5.932;2022-08-01T03:34:41;9.93;;;3.10;;
53652;SDS011;39553;52.954;5.932;2022-08-01T03:37:12;7.68;;;3.35;;
53652;SDS011;39553;52.954;5.932;2022-08-01T03:39:50;10.73;;;3.28;;
53652;SDS011;39553;52.954;5.932;2022-08-01T03:42:25;10.93;;;2.88;;
53652;SDS011;39553;52.954;5.932;2022-08-01T03:44:58;8.50;;;3.13;;
53652;SDS011;39553;52.954;5.932;2022-08-01T03:47:32;8.23;;;3.15;;
53652;SDS011;39553;52.954;5.932;2022-08-01T03:50:00;16.40;;;3.45;;
53652;SDS011;39553;52.954;5.932;2022-08-01T03:52:29;7.05;;;3.88;;
53652;SDS011;39553;52.954;5.932;2022-08-01T03:54:58;8.40;;;3.30;;
53652;SDS011;39553;52.954;5.932;2022-08-01T03:57:32;6.55;;;3.08;;
53652;SDS011;39553;52.954;5.932;2022-08-01T03:59:59;8.32;;;3.20;;
53652;SDS011;39553;52.954;5.932;2022-08-01T04:02:28;14.98;;;3.45;;
53652;SDS011;39553;52.954;5.932;2022-08-01T04:04:54;10.98;;;3.67;;
53652;SDS011;39553;52.954;5.932;2022-08-01T04:07:25;6.60;;;3.08;;
53652;SDS011;39553;52.954;5.932;2022-08-01T04:09:55;12.73;;;3.65;;
53652;SDS011;39553;52.954;5.932;2022-08-01T04:12:21;12.30;;;3.95;;
53652;SDS011;39553;52.954;5.932;2022-08-01T04:14:47;14.05;;;3.97;;
53652;SDS011;39553;52.954;5.932;2022-08-01T04:17:14;9.93;;;4.22;;
53652;SDS011;39553;52.954;5.932;2022-08-01T04:19:40;10.90;;;3.70;;
53652;SDS011;39553;52.954;5.932;2022-08-01T04:22:07;12.85;;;3.83;;
53652;SDS011;39553;52.954;5.932;2022-08-01T04:24:35;11.05;;;4.22;;
53652;SDS011;39553;52.954;5.932;2022-08-01T04:27:02;17.83;;;4.40;;
53652;SDS011;39553;52.954;5.932;2022-08-01T04:29:34;14.07;;;4.65;;
53652;SDS011;39553;52.954;5.932;2022-08-01T04:32:02;14.00;;;4.13;;
53652;SDS011;39553;52.954;5.932;2022-08-01T04:34:31;16.30;;;4.65;;
53652;SDS011;39553;52.954;5.932;2022-08-01T04:36:58;17.02;;;5.43;;
53652;SDS011;39553;52.954;5.932;2022-08-01T04:39:26;11.65;;;4.93;;
53652;SDS011;39553;52.954;5.932;2022-08-01T04:41:56;17.85;;;5.30;;
53652;SDS011;39553;52.954;5.932;2022-08-01T04:44:25;13.32;;;5.18;;
53652;SDS011;39553;52.954;5.932;2022-08-01T04:46:52;21.88;;;4.95;;
53652;SDS011;39553;52.954;5.932;2022-08-01T04:49:19;19.02;;;5.00;;
53652;SDS011;39553;52.954;5.932;2022-08-01T04:51:50;14.30;;;5.13;;
53652;SDS011;39553;52.954;5.932;2022-08-01T04:54:17;11.82;;;5.03;;
53652;SDS011;39553;52.954;5.932;2022-08-01T04:56:43;18.33;;;5.30;;
53652;SDS011;39553;52.954;5.932;2022-08-01T04:59:09;17.20;;;4.55;;
53652;SDS011;39553;52.954;5.932;2022-08-01T05:01:53;15.25;;;5.13;;
53652;SDS011;39553;52.954;5.932;2022-08-01T05:04:19;17.50;;;5.90;;
53652;SDS011;39553;52.954;5.932;2022-08-01T05:06:44;17.70;;;4.60;;
53652;SDS011;39553;52.954;5.932;2022-08-01T05:09:10;17.95;;;6.65;;
53652;SDS011;39553;52.954;5.932;2022-08-01T05:11:36;23.27;;;5.45;;
53652;SDS011;39553;52.954;5.932;2022-08-01T05:14:02;16.92;;;5.28;;
53652;SDS011;39553;52.954;5.932;2022-08-01T05:16:28;20.52;;;6.65;;
53652;SDS011;39553;52.954;5.932;2022-08-01T05:18:53;15.98;;;5.75;;
53652;SDS011;39553;52.954;5.932;2022-08-01T05:21:19;17.70;;;5.88;;
53652;SDS011;39553;52.954;5.932;2022-08-01T05:23:45;14.60;;;5.35;;
53652;SDS011;39553;52.954;5.932;2022-08-01T05:26:10;20.88;;;6.57;;
53652;SDS011;39553;52.954;5.932;2022-08-01T05:28:39;22.85;;;5.97;;
53652;SDS011;39553;52.954;5.932;2022-08-01T05:31:05;19.88;;;6.28;;
53652;SDS011;39553;52.954;5.932;2022-08-01T05:33:31;19.55;;;5.32;;
53652;SDS011;39553;52.954;5.932;2022-08-01T05:35:57;15.85;;;4.38;;
53652;SDS011;39553;52.954;5.932;2022-08-01T05:38:22;23.60;;;4.90;;
53652;SDS011;39553;52.954;5.932;2022-08-01T05:40:48;17.00;;;4.40;;
53652;SDS011;39553;52.954;5.932;2022-08-01T05:43:14;11.02;;;5.53;;
53652;SDS011;39553;52.954;5.932;2022-08-01T05:45:39;10.35;;;4.13;;
53652;SDS011;39553;52.954;5.932;2022-08-01T05:48:06;18.10;;;4.03;;
53652;SDS011;39553;52.954;5.932;2022-08-01T05:50:32;20.30;;;3.95;;
53652;SDS011;39553;52.954;5.932;2022-08-01T05:52:58;17.65;;;3.92;;
53652;SDS011;39553;52.954;5.932;2022-08-01T05:55:24;9.65;;;3.58;;
53652;SDS011;39553;52.954;5.932;2022-08-01T05:57:50;13.98;;;3.60;;
53652;SDS011;39553;52.954;5.932;2022-08-01T06:00:15;12.45;;;3.20;;
53652;SDS011;39553;52.954;5.932;2022-08-01T06:02:41;12.25;;;3.53;;
53652;SDS011;39553;52.954;5.932;2022-08-01T06:05:08;10.32;;;2.95;;
53652;SDS011;39553;52.954;5.932;2022-08-01T06:07:35;16.52;;;3.83;;
53652;SDS011;39553;52.954;5.932;2022-08-01T06:10:01;14.57;;;3.67;;
53652;SDS011;39553;52.954;5.932;2022-08-01T06:12:26;9.05;;;4.28;;
53652;SDS011;39553;52.954;5.932;2022-08-01T06:14:52;8.68;;;2.97;;
53652;SDS011;39553;52.954;5.932;2022-08-01T06:17:18;14.68;;;3.25;;
53652;SDS011;39553;52.954;5.932;2022-08-01T06:19:43;11.98;;;3.47;;
53652;SDS011;39553;52.954;5.932;2022-08-01T06:22:09;12.50;;;2.88;;
53652;SDS011;39553;52.954;5.932;2022-08-01T06:24:35;13.30;;;3.03;;
53652;SDS011;39553;52.954;5.932;2022-08-01T06:27:03;21.75;;;3.90;;
53652;SDS011;39553;52.954;5.932;2022-08-01T06:29:30;11.35;;;3.50;;
53652;SDS011;39553;52.954;5.932;2022-08-01T06:31:56;12.10;;;3.33;;
53652;SDS011;39553;52.954;5.932;2022-08-01T06:34:22;16.50;;;3.42;;
53652;SDS011;39553;52.954;5.932;2022-08-01T06:36:48;9.60;;;3.42;;
53652;SDS011;39553;52.954;5.932;2022-08-01T06:39:13;14.48;;;3.65;;
53652;SDS011;39553;52.954;5.932;2022-08-01T06:41:39;14.60;;;3.70;;
53652;SDS011;39553;52.954;5.932;2022-08-01T06:44:06;13.48;;;3.40;;
53652;SDS011;39553;52.954;5.932;2022-08-01T06:46:33;15.98;;;3.72;;
53652;SDS011;39553;52.954;5.932;2022-08-01T06:48:59;8.13;;;2.80;;
53652;SDS011;39553;52.954;5.932;2022-08-01T06:51:25;12.88;;;3.40;;
53652;SDS011;39553;52.954;5.932;2022-08-01T06:53:51;15.27;;;4.05;;
53652;SDS011;39553;52.954;5.932;2022-08-01T06:56:18;18.63;;;3.22;;
53652;SDS011;39553;52.954;5.932;2022-08-01T06:58:44;7.50;;;2.83;;
53652;SDS011;39553;52.954;5.932;2022-08-01T07:01:10;12.50;;;3.45;;
53652;SDS011;39553;52.954;5.932;2022-08-01T07:03:36;16.48;;;3.70;;
53652;SDS011;39553;52.954;5.932;2022-08-01T07:06:02;9.98;;;3.00;;
53652;SDS011;39553;52.954;5.932;2022-08-01T07:08:29;11.30;;;3.20;;
53652;SDS011;39553;52.954;5.932;2022-08-01T07:10:54;12.52;;;3.55;;
53652;SDS011;39553;52.954;5.932;2022-08-01T07:13:24;14.68;;;3.35;;
53652;SDS011;39553;52.954;5.932;2022-08-01T07:15:51;15.27;;;4.30;;
53652;SDS011;39553;52.954;5.932;2022-08-01T07:18:18;13.65;;;3.42;;
53652;SDS011;39553;52.954;5.932;2022-08-01T07:20:44;7.88;;;3.00;;
53652;SDS011;39553;52.954;5.932;2022-08-01T07:23:12;11.20;;;3.28;;
53652;SDS011;39553;52.954;5.932;2022-08-01T07:25:38;15.63;;;3.40;;
53652;SDS011;39553;52.954;5.932;2022-08-01T07:28:04;9.15;;;2.97;;
53652;SDS011;39553;52.954;5.932;2022-08-01T07:30:30;9.82;;;3.60;;
53652;SDS011;39553;52.954;5.932;2022-08-01T07:32:56;15.23;;;3.45;;
53652;SDS011;39553;52.954;5.932;2022-08-01T07:35:22;13.00;;;3.40;;
53652;SDS011;39553;52.954;5.932;2022-08-01T07:37:48;14.73;;;2.85;;
53652;SDS011;39553;52.954;5.932;2022-08-01T07:40:13;11.07;;;3.10;;
53652;SDS011;39553;52.954;5.932;2022-08-01T07:42:39;6.75;;;2.78;;
53652;SDS011;39553;52.954;5.932;2022-08-01T07:45:10;10.77;;;3.30;;
53652;SDS011;39553;52.954;5.932;2022-08-01T07:47:36;12.18;;;3.42;;
53652;SDS011;39553;52.954;5.932;2022-08-01T07:50:02;10.73;;;3.13;;
53652;SDS011;39553;52.954;5.932;2022-08-01T07:52:29;12.32;;;3.25;;
53652;SDS011;39553;52.954;5.932;2022-08-01T07:54:55;9.00;;;4.15;;
53652;SDS011;39553;52.954;5.932;2022-08-01T07:57:22;14.70;;;4.15;;
53652;SDS011;39553;52.954;5.932;2022-08-01T07:59:48;17.50;;;3.53;;
53652;SDS011;39553;52.954;5.932;2022-08-01T08:02:14;10.55;;;3.15;;
53652;SDS011;39553;52.954;5.932;2022-08-01T08:04:40;15.98;;;3.53;;
53652;SDS011;39553;52.954;5.932;2022-08-01T08:07:06;10.57;;;2.45;;
53652;SDS011;39553;52.954;5.932;2022-08-01T08:09:32;12.98;;;3.05;;
53652;SDS011;39553;52.954;5.932;2022-08-01T08:11:58;9.73;;;2.97;;
53652;SDS011;39553;52.954;5.932;2022-08-01T08:14:24;11.18;;;2.60;;
53652;SDS011;39553;52.954;5.932;2022-08-01T08:16:50;11.35;;;2.92;;
53652;SDS011;39553;52.954;5.932;2022-08-01T08:19:16;13.68;;;2.85;;
53652;SDS011;39553;52.954;5.932;2022-08-01T08:21:42;12.43;;;3.22;;
53652;SDS011;39553;52.954;5.932;2022-08-01T08:24:08;14.02;;;2.90;;
53652;SDS011;39553;52.954;5.932;2022-08-01T08:26:47;7.72;;;2.63;;
53652;SDS011;39553;52.954;5.932;2022-08-01T08:29:13;8.13;;;2.40;;
53652;SDS011;39553;52.954;5.932;2022-08-01T08:31:39;7.15;;;2.53;;
53652;SDS011;39553;52.954;5.932;2022-08-01T08:34:05;12.38;;;2.75;;
53652;SDS011;39553;52.954;5.932;2022-08-01T08:36:31;9.00;;;2.42;;
53652;SDS011;39553;52.954;5.932;2022-08-01T08:38:57;10.77;;;2.60;;
53652;SDS011;39553;52.954;5.932;2022-08-01T08:41:28;12.10;;;3.00;;
53652;SDS011;39553;52.954;5.932;2022-08-01T08:43:57;10.07;;;2.42;;
53652;SDS011;39553;52.954;5.932;2022-08-01T08:46:26;8.32;;;2.08;;
53652;SDS011;39553;52.954;5.932;2022-08-01T08:48:53;10.65;;;2.72;;
53652;SDS011;39553;52.954;5.932;2022-08-01T08:51:23;10.82;;;2.50;;
53652;SDS011;39553;52.954;5.932;2022-08-01T08:53:55;5.03;;;2.30;;
53652;SDS011;39553;52.954;5.932;2022-08-01T08:56:23;13.55;;;2.70;;
53652;SDS011;39553;52.954;5.932;2022-08-01T08:58:50;10.90;;;2.88;;
53652;SDS011;39553;52.954;5.932;2022-08-01T09:01:16;11.00;;;2.33;;
53652;SDS011;39553;52.954;5.932;2022-08-01T09:03:43;8.00;;;2.03;;
53652;SDS011;39553;52.954;5.932;2022-08-01T09:06:09;9.35;;;2.22;;
53652;SDS011;39553;52.954;5.932;2022-08-01T09:08:36;10.68;;;2.67;;
53652;SDS011;39553;52.954;5.932;2022-08-01T09:11:02;8.68;;;2.67;;
53652;SDS011;39553;52.954;5.932;2022-08-01T09:13:29;10.82;;;2.10;;
53652;SDS011;39553;52.954;5.932;2022-08-01T09:15:55;7.18;;;2.28;;
53652;SDS011;39553;52.954;5.932;2022-08-01T09:18:39;6.88;;;2.13;;
53652;SDS011;39553;52.954;5.932;2022-08-01T09:23:36;12.30;;;2.20;;
53652;SDS011;39553;52.954;5.932;2022-08-01T09:26:14;8.52;;;2.50;;
53652;SDS011;39553;52.954;5.932;2022-08-01T09:28:42;7.43;;;2.30;;
53652;SDS011;39553;52.954;5.932;2022-08-01T09:31:10;9.75;;;2.38;;
53652;SDS011;39553;52.954;5.932;2022-08-01T09:36:18;10.60;;;2.65;;
53652;SDS011;39553;52.954;5.932;2022-08-01T09:38:48;6.22;;;2.42;;
53652;SDS011;39553;52.954;5.932;2022-08-01T09:41:15;8.77;;;2.53;;
53652;SDS011;39553;52.954;5.932;2022-08-01T09:43:47;8.60;;;1.90;;
53652;SDS011;39553;52.954;5.932;2022-08-01T09:46:14;5.88;;;2.08;;
53652;SDS011;39553;52.954;5.932;2022-08-01T09:49:03;5.03;;;1.85;;
53652;SDS011;39553;52.954;5.932;2022-08-01T09:51:32;9.30;;;2.30;;
53652;SDS011;39553;52.954;5.932;2022-08-01T09:53:59;9.68;;;2.30;;
53652;SDS011;39553;52.954;5.932;2022-08-01T09:56:26;5.38;;;1.65;;
53652;SDS011;39553;52.954;5.932;2022-08-01T09:58:54;7.20;;;2.10;;
53652;SDS011;39553;52.954;5.932;2022-08-01T10:01:21;6.93;;;1.98;;
53652;SDS011;39553;52.954;5.932;2022-08-01T10:03:52;6.85;;;2.33;;
53652;SDS011;39553;52.954;5.932;2022-08-01T10:06:36;5.32;;;1.67;;
53652;SDS011;39553;52.954;5.932;2022-08-01T10:09:08;4.78;;;1.88;;
53652;SDS011;39553;52.954;5.932;2022-08-01T10:11:34;11.35;;;2.35;;
53652;SDS011;39553;52.954;5.932;2022-08-01T10:14:04;5.80;;;2.75;;
53652;SDS011;39553;52.954;5.932;2022-08-01T10:16:30;5.63;;;1.70;;
53652;SDS011;39553;52.954;5.932;2022-08-01T10:18:58;5.97;;;1.55;;
53652;SDS011;39553;52.954;5.932;2022-08-01T10:21:25;9.48;;;2.03;;
53652;SDS011;39553;52.954;5.932;2022-08-01T10:23:53;5.43;;;2.00;;
53652;SDS011;39553;52.954;5.932;2022-08-01T10:26:21;9.10;;;2.00;;
53652;SDS011;39553;52.954;5.932;2022-08-01T10:28:50;5.47;;;1.67;;
53652;SDS011;39553;52.954;5.932;2022-08-01T10:31:17;4.70;;;1.92;;
53652;SDS011;39553;52.954;5.932;2022-08-01T10:33:44;8.02;;;1.90;;
53652;SDS011;39553;52.954;5.932;2022-08-01T10:36:10;3.97;;;1.90;;
53652;SDS011;39553;52.954;5.932;2022-08-01T10:38:36;6.53;;;1.42;;
53652;SDS011;39553;52.954;5.932;2022-08-01T10:41:03;6.32;;;1.77;;
53652;SDS011;39553;52.954;5.932;2022-08-01T10:43:29;9.93;;;2.15;;
53652;SDS011;39553;52.954;5.932;2022-08-01T10:45:55;8.68;;;1.98;;
53652;SDS011;39553;52.954;5.932;2022-08-01T10:48:34;5.95;;;1.65;;
53652;SDS011;39553;52.954;5.932;2022-08-01T10:51:08;7.60;;;2.10;;
53652;SDS011;39553;52.954;5.932;2022-08-01T10:53:33;6.68;;;1.92;;
53652;SDS011;39553;52.954;5.932;2022-08-01T10:56:00;4.00;;;1.98;;
53652;SDS011;39553;52.954;5.932;2022-08-01T11:06:36;7.65;;;1.60;;
53652;SDS011;39553;52.954;5.932;2022-08-01T11:12:00;6.32;;;2.00;;
53652;SDS011;39553;52.954;5.932;2022-08-01T11:14:30;7.75;;;2.08;;
53652;SDS011;39553;52.954;5.932;2022-08-01T11:16:56;6.47;;;1.65;;
53652;SDS011;39553;52.954;5.932;2022-08-01T11:20:08;3.67;;;1.83;;
53652;SDS011;39553;52.954;5.932;2022-08-01T11:30:43;6.60;;;1.85;;
53652;SDS011;39553;52.954;5.932;2022-08-01T11:33:10;5.15;;;1.63;;
53652;SDS011;39553;52.954;5.932;2022-08-01T11:35:37;9.40;;;1.75;;
53652;SDS011;39553;52.954;5.932;2022-08-01T11:38:23;6.93;;;1.65;;
53652;SDS011;39553;52.954;5.932;2022-08-01T11:44:04;6.15;;;1.73;;
53652;SDS011;39553;52.954;5.932;2022-08-01T11:46:49;5.80;;;1.65;;
53652;SDS011;39553;52.954;5.932;2022-08-01T11:54:36;4.85;;;1.70;;
53652;SDS011;39553;52.954;5.932;2022-08-01T11:57:07;6.13;;;1.55;;
53652;SDS011;39553;52.954;5.932;2022-08-01T11:59:45;5.32;;;1.55;;
53652;SDS011;39553;52.954;5.932;2022-08-01T12:02:30;6.03;;;1.95;;
53652;SDS011;39553;52.954;5.932;2022-08-01T12:05:11;5.28;;;1.80;;
53652;SDS011;39553;52.954;5.932;2022-08-01T12:07:39;4.60;;;1.90;;
53652;SDS011;39553;52.954;5.932;2022-08-01T12:10:07;5.43;;;1.45;;
53652;SDS011;39553;52.954;5.932;2022-08-01T12:12:45;7.95;;;1.75;;
53652;SDS011;39553;52.954;5.932;2022-08-01T12:15:13;9.40;;;1.98;;
53652;SDS011;39553;52.954;5.932;2022-08-01T12:17:46;7.70;;;1.70;;
53652;SDS011;39553;52.954;5.932;2022-08-01T12:20:19;3.42;;;1.73;;
53652;SDS011;39553;52.954;5.932;2022-08-01T12:22:47;5.00;;;1.25;;
53652;SDS011;39553;52.954;5.932;2022-08-01T12:25:18;5.40;;;1.27;;
53652;SDS011;39553;52.954;5.932;2022-08-01T12:27:46;4.43;;;1.67;;
53652;SDS011;39553;52.954;5.932;2022-08-01T12:30:17;6.38;;;1.77;;
53652;SDS011;39553;52.954;5.932;2022-08-01T12:32:47;3.65;;;1.20;;
53652;SDS011;39553;52.954;5.932;2022-08-01T12:35:19;4.90;;;1.55;;
53652;SDS011;39553;52.954;5.932;2022-08-01T12:37:53;3.95;;;1.42;;
53652;SDS011;39553;52.954;5.932;2022-08-01T12:40:24;2.45;;;1.10;;
53652;SDS011;39553;52.954;5.932;2022-08-01T12:42:56;3.20;;;1.13;;
53652;SDS011;39553;52.954;5.932;2022-08-01T12:45:25;4.60;;;1.20;;
53652;SDS011;39553;52.954;5.932;2022-08-01T12:47:53;5.32;;;1.92;;
53652;SDS011;39553;52.954;5.932;2022-08-01T12:50:20;5.88;;;1.67;;
53652;SDS011;39553;52.954;5.932;2022-08-01T12:52:48;5.50;;;1.67;;
53652;SDS011;39553;52.954;5.932;2022-08-01T12:55:19;4.68;;;1.42;;
53652;SDS011;39553;52.954;5.932;2022-08-01T13:00:27;4.40;;;1.73;;
53652;SDS011;39553;52.954;5.932;2022-08-01T13:03:27;5.63;;;1.48;;
53652;SDS011;39553;52.954;5.932;2022-08-01T13:08:18;3.50;;;1.40;;
53652;SDS011;39553;52.954;5.932;2022-08-01T13:10:46;3.88;;;1.15;;
53652;SDS011;39553;52.954;5.932;2022-08-01T13:13:13;5.07;;;1.50;;
53652;SDS011;39553;52.954;5.932;2022-08-01T13:15:40;5.55;;;1.40;;
53652;SDS011;39553;52.954;5.932;2022-08-01T13:18:27;5.65;;;2.13;;
53652;SDS011;39553;52.954;5.932;2022-08-01T13:23:37;2.65;;;1.10;;
53652;SDS011;39553;52.954;5.932;2022-08-01T13:26:04;3.55;;;1.48;;
53652;SDS011;39553;52.954;5.932;2022-08-01T13:28:30;5.05;;;1.10;;
53652;SDS011;39553;52.954;5.932;2022-08-01T13:31:03;6.38;;;1.23;;
53652;SDS011;39553;52.954;5.932;2022-08-01T13:33:42;4.45;;;1.27;;
53652;SDS011;39553;52.954;5.932;2022-08-01T13:36:12;3.30;;;1.20;;
53652;SDS011;39553;52.954;5.932;2022-08-01T13:38:39;8.32;;;1.70;;
53652;SDS011;39553;52.954;5.932;2022-08-01T13:41:24;7.05;;;1.60;;
53652;SDS011;39553;52.954;5.932;2022-08-01T13:43:51;2.60;;;1.38;;
53652;SDS011;39553;52.954;5.932;2022-08-01T13:46:17;3.38;;;1.50;;
53652;SDS011;39553;52.954;5.932;2022-08-01T13:48:43;4.22;;;1.42;;
53652;SDS011;39553;52.954;5.932;2022-08-01T13:51:09;5.90;;;1.35;;
53652;SDS011;39553;52.954;5.932;2022-08-01T13:53:35;5.65;;;1.85;;
53652;SDS011;39553;52.954;5.932;2022-08-01T13:56:01;6.40;;;1.70;;
53652;SDS011;39553;52.954;5.932;2022-08-01T13:58:27;2.33;;;1.60;;
53652;SDS011;39553;52.954;5.932;2022-08-01T14:00:54;5.25;;;1.85;;
53652;SDS011;39553;52.954;5.932;2022-08-01T14:03:20;3.95;;;1.38;;
53652;SDS011;39553;52.954;5.932;2022-08-01T14:05:47;5.13;;;1.80;;
53652;SDS011;39553;52.954;5.932;2022-08-01T14:08:13;7.85;;;1.13;;
53652;SDS011;39553;52.954;5.932;2022-08-01T14:10:40;4.00;;;1.35;;
53652;SDS011;39553;52.954;5.932;2022-08-01T14:13:05;2.55;;;1.17;;
53652;SDS011;39553;52.954;5.932;2022-08-01T14:15:32;7.15;;;1.85;;
53652;SDS011;39553;52.954;5.932;2022-08-01T14:17:58;4.60;;;1.30;;
53652;SDS011;39553;52.954;5.932;2022-08-01T14:20:24;6.65;;;1.40;;
53652;SDS011;39553;52.954;5.932;2022-08-01T14:22:50;7.60;;;1.55;;
53652;SDS011;39553;52.954;5.932;2022-08-01T14:25:16;4.68;;;1.10;;
53652;SDS011;39553;52.954;5.932;2022-08-01T14:27:43;4.53;;;1.63;;
53652;SDS011;39553;52.954;5.932;2022-08-01T14:30:11;3.65;;;1.35;;
53652;SDS011;39553;52.954;5.932;2022-08-01T14:32:37;4.25;;;1.30;;
53652;SDS011;39553;52.954;5.932;2022-08-01T14:35:04;8.80;;;1.40;;
53652;SDS011;39553;52.954;5.932;2022-08-01T14:37:31;2.15;;;1.10;;
53652;SDS011;39553;52.954;5.932;2022-08-01T14:39:57;3.92;;;1.30;;
53652;SDS011;39553;52.954;5.932;2022-08-01T14:42:25;3.38;;;1.30;;
53652;SDS011;39553;52.954;5.932;2022-08-01T14:44:51;7.25;;;1.38;;
53652;SDS011;39553;52.954;5.932;2022-08-01T14:47:17;5.63;;;1.60;;
53652;SDS011;39553;52.954;5.932;2022-08-01T14:49:42;6.55;;;1.65;;
53652;SDS011;39553;52.954;5.932;2022-08-01T14:52:08;3.10;;;1.30;;
53652;SDS011;39553;52.954;5.932;2022-08-01T14:54:34;5.68;;;1.83;;
53652;SDS011;39553;52.954;5.932;2022-08-01T14:57:00;3.10;;;1.30;;
53652;SDS011;39553;52.954;5.932;2022-08-01T14:59:25;3.42;;;1.02;;
53652;SDS011;39553;52.954;5.932;2022-08-01T15:01:51;3.88;;;1.30;;
53652;SDS011;39553;52.954;5.932;2022-08-01T15:04:17;4.53;;;1.73;;
53652;SDS011;39553;52.954;5.932;2022-08-01T15:06:43;10.25;;;1.50;;
53652;SDS011;39553;52.954;5.932;2022-08-01T15:09:09;3.80;;;1.38;;
53652;SDS011;39553;52.954;5.932;2022-08-01T15:11:35;2.90;;;1.48;;
53652;SDS011;39553;52.954;5.932;2022-08-01T15:14:01;12.05;;;1.85;;
53652;SDS011;39553;52.954;5.932;2022-08-01T15:19:12;4.28;;;1.42;;
53652;SDS011;39553;52.954;5.932;2022-08-01T15:21:38;5.00;;;1.42;;
53652;SDS011;39553;52.954;5.932;2022-08-01T15:24:04;5.95;;;1.40;;
53652;SDS011;39553;52.954;5.932;2022-08-01T15:26:30;3.63;;;1.40;;
53652;SDS011;39553;52.954;5.932;2022-08-01T15:28:56;7.03;;;1.60;;
53652;SDS011;39553;52.954;5.932;2022-08-01T15:31:21;5.60;;;1.48;;
53652;SDS011;39553;52.954;5.932;2022-08-01T15:33:47;6.05;;;1.55;;
53652;SDS011;39553;52.954;5.932;2022-08-01T15:36:13;5.40;;;1.85;;
53652;SDS011;39553;52.954;5.932;2022-08-01T15:38:39;3.65;;;1.58;;
53652;SDS011;39553;52.954;5.932;2022-08-01T15:41:05;5.03;;;1.80;;
53652;SDS011;39553;52.954;5.932;2022-08-01T15:43:30;5.22;;;1.45;;